Pagrindinis puslapis
METAR-TAF:

METAR-TAF

Oro uostai :

Ahvazas, Iranas

platuma: 31-20N, ilguma: 048-40E, Aukštis: 20 m

Dabartinis oras

Ataskaita buvo paskelbta 34 minutes, ne 04:30 UTC
Vėjas 2 kt iš Vakarų/Šiaurės Vakarų
Temperatūra 34°C
Drėgmė 22%
Slėgis 1002 hPa
Matomumas 10 km arba daugiau
nėra debesų žemiau 1500 m ir nėra kamuolinių lietaus debesų

METAR: OIAW 290430Z 30002KT CAVOK 34/09 Q1002

Laikas: 09:34 (05:04 UTC)

Prognozė

Ataskaita buvo paskelbta 6 valandos ir 4 minutes, ne 23:00 UTC
Prognozė galioja nuo 29 metu 00 UTC su 30 metu 06 UTC
Vėjas 8 kt iš Šiaurės Vakarų
Matomumas: 7000 m
Laikinai
nuo 29 metu 00 UTC su 29 metu 06 UTC
Matomumas: 4000 m
migla
Tapsmas
nuo 29 metu 12 UTC su 29 metu 14 UTC
Vėjas 15 kt iš Šiaurės Vakarų su gūsio iki 25 kt
Matomumas: 5000 m
migla, dulkės
Laikinai
nuo 29 metu 12 UTC su 29 metu 18 UTC
Matomumas: 3000 m
dulkės, Smėlis

TAF: OIAW 282300Z 2900/3006 31008KT 7000 NSC TEMPO 2900/2906 4000 HZ BECMG 2912/2914 31015G25KT 5000 HZ DU TEMPO 2912/2918 3000 DU SA

Orai ataskaitas ir orų prognozės (METAR, TAF).

turimą stotys yra geltonos ir raudonos taškus žemėlapyje.

Perkelti pele per norėdami pamatyti stoties vardą.

Tada spustelėkite, norėdami matyti oro stebėjimo ir prognozės.

Norėdami pakeisti žemėlapį: spustelėkite ant žalios mygtukų su juodo kryžiaus žemyn,; žalią mygtuką su brūkšneliu, jei norite nutolinti; arba žalių rodyklių gretimoms žemėlapius.


METAR-TAF: